Reading Station, Pennsylvania
Current Conditions -  °F | °C
As of 4:09 AM on Monday 22 Dec 2014 (Local Time) from KRDG Reporting Station
Broken Clouds Broken Clouds  
Wind Chill: 21°   Ceiling: 2400
Heat Index: 21°   Visibility: 7mi
Dew Point: 17°   Wind: 3mph
Humidity: 85%   Direction: 250°WSW
Pressure: 30.32"   Gusts: NA
Location:  40.3351°N, 75.8521°W
Report Text: KRDG 220909Z AUTO 25003KT 7SM BKN024 M06/M08 A3032 RMK AO2 T10611083
Loading
Personal Weather Stations






























Interactive Weather Map New forecast layout! Learn more

10-Day Weather Forecast

Advertisements
Track Severe Weather on mobile